CMA CGM Homere — MQBL6 — position and weather

sailwx.info

Track history (hours):
 
Tides and Currents Weather Stations Pressure Air Temp Water Temp Dewpoint Dewpoint Depression Visibility Wind Speed Wind Dir Waves Ship Positions

CMA CGM Homere

Last reported at 2016-Sep-20 17:33 UTC. Time now 2016-Sep-25 17:29 UTC.
Position N 36°19' E 013°52'.

Length 170 m; draft 9.3 m.

Type: Ship (hazmat cat A). MMSI: 235052314.

Date/timePositionNaut miles runAvg speedWind from/ knotsBaromVisibWave heightAir tempDewpointWater temp
2016-Sep-20 17:33N 36°19' E 013°52'76316.6
2016-Sep-18 19:30N 36°11' W 001°55'8416.9
2016-Sep-18 14:34N 36°05' W 003°38'7717.4
2016-Sep-18 10:09N 35°60' W 005°13'1117.9
2016-Sep-18 09:33N 35°58' W 005°26'11716.7
2016-Sep-18 02:33N 36°12' W 007°49'1716.8
2016-Sep-18 01:33N 36°17' W 008°09'1717.0
2016-Sep-18 00:34N 36°22' W 008°29'3417.0
2016-Sep-17 22:33N 36°31' W 009°10'1616.5
2016-Sep-17 21:33N 36°41' W 009°26'1716.9
2016-Sep-17 20:34N 36°56' W 009°36'2217.4
2016-Sep-17 19:16N 37°18' W 009°43'10017.4
2016-Sep-17 13:33N 38°56' W 010°07'1717.0
2016-Sep-17 12:33N 39°13' W 010°07'5317.4
2016-Sep-17 09:31N 40°06' W 010°07'1617.3
2016-Sep-17 08:33N 40°22' W 010°07'47916.0
2016-Sep-16 02:33N 47°55' W 006°31'34 7.9
2016-Sep-15 22:12N 48°26' W 006°09'1217.9
2016-Sep-15 21:33N 48°37' W 006°01'1818.2
2016-Sep-15 20:33N 48°52' W 005°47'12115.1
2016-Sep-15 12:33N 49°53' W 003°06'1818.5
2016-Sep-15 11:33N 50°00' W 002°39'10615.1
2016-Sep-15 04:33N 49°30' W 000°02'9 8.7
2016-Sep-15 03:33N 49°27' E 000°10'0 0.0
2016-Sep-15 01:33N 49°27' E 000°10'0 0.0
2016-Sep-14 22:33N 49°27' E 000°10'0 0.0
2016-Sep-14 21:33N 49°27' E 000°10'14 3.6
2016-Sep-14 17:32N 49°34' W 000°10'0 0.1
2016-Sep-14 16:32N 49°34' W 000°10'2 0.5
2016-Sep-14 13:33N 49°34' W 000°12'8 8.2
2016-Sep-14 12:33N 49°38' W 000°23'17 8.4
2016-Sep-14 10:33N 49°55' W 000°24'1615.9
2016-Sep-14 09:33N 50°10' W 000°16'1211.5
2016-Sep-14 08:34N 50°20' W 000°10'8 8.1
2016-Sep-14 07:33N 50°28' W 000°05'8 7.9
2016-Sep-14 06:29N 50°31' E 000°08'76 9.5
2016-Sep-13 22:33N 51°14' E 001°46'16 7.9
2016-Sep-13 20:33N 51°24' E 002°05'19 9.5
2016-Sep-13 18:33N 51°22' E 002°35'1211.7
2016-Sep-13 17:33N 51°22' E 002°54'1515.3
2016-Sep-13 16:33N 51°25' E 003°18'36 7.0
2016-Sep-13 11:19N 51°17' E 004°16'0 0.0
2016-Sep-13 09:22N 51°17' E 004°16'0 0.0
2016-Sep-13 07:28N 51°17' E 004°16'0 0.0
2016-Sep-13 06:22N 51°17' E 004°16'0 0.0
2016-Sep-13 04:22N 51°17' E 004°16'0 0.0
2016-Sep-13 02:31N 51°17' E 004°16'8 2.6
2016-Sep-12 23:33N 51°22' E 004°06'19 9.7
2016-Sep-12 21:33N 51°26' E 003°36'2010.1
2016-Sep-12 19:33N 51°31' E 003°04'2713.2
2016-Sep-12 17:30N 51°56' E 003°20'26 8.8
2016-Sep-12 14:34N 51°59' E 004°02'0 0.1
2016-Sep-12 13:32N 51°59' E 004°02'0 0.0
2016-Sep-12 12:32N 51°59' E 004°02'0 0.0
2016-Sep-12 11:32N 51°59' E 004°02'0 0.0
2016-Sep-12 10:32N 51°59' E 004°02'0 0.0
2016-Sep-12 07:32N 51°59' E 004°02'0 0.0
2016-Sep-12 06:32N 51°59' E 004°02'0 0.0
2016-Sep-12 03:32N 51°59' E 004°02'6 3.0
2016-Sep-12 01:33N 52°00' E 003°52'2110.7
2016-Sep-11 23:34N 52°21' E 003°48'1111.4
2016-Sep-11 22:33N 52°33' E 003°52'1111.1
2016-Sep-11 21:33N 52°43' E 003°56'1111.5
2016-Sep-11 20:33N 52°55' E 003°59'1212.2
2016-Sep-11 19:33N 53°05' E 004°11'1514.5
2016-Sep-11 18:31N 53°15' E 004°29'2014.6
2016-Sep-11 17:08N 53°32' E 004°49'915.3
2016-Sep-11 16:33N 53°35' E 005°03'1514.9
2016-Sep-11 15:33N 53°40' E 005°26'1414.5
2016-Sep-11 14:33N 53°44' E 005°50'1414.4
2016-Sep-11 13:34N 53°49' E 006°13'1414.4
2016-Sep-11 12:33N 53°52' E 006°36'1515.1
2016-Sep-11 11:33N 53°55' E 007°02'1615.6
2016-Sep-11 10:33N 53°59' E 007°27'3015.0
2016-Sep-11 08:33N 53°60' E 008°18'1515.1
2016-Sep-11 07:33N 53°54' E 008°42'4310.8
2016-Sep-11 03:34N 53°34' E 009°46'5 5.2
2016-Sep-11 02:32N 53°32' E 009°55'0 0.0
2016-Sep-11 01:33N 53°32' E 009°55'0 0.0
2016-Sep-11 00:33N 53°32' E 009°55'0 0.0
2016-Sep-10 23:33N 53°32' E 009°55'0 0.0
2016-Sep-10 22:33N 53°32' E 009°55'0 0.0
2016-Sep-10 21:33N 53°32' E 009°55'0 0.0
2016-Sep-10 20:33N 53°32' E 009°55'0 0.0
2016-Sep-10 19:33N 53°32' E 009°55'0 0.0
2016-Sep-10 18:33N 53°32' E 009°55'  
Track history (hours):
 
Tides and Currents Weather Stations Pressure Air Temp Water Temp Dewpoint Dewpoint Depression Visibility Wind Speed Wind Dir Waves Ship Positions

CMA CGM Homere

Last reported at 2016-Sep-20 17:33 UTC. Time now 2016-Sep-25 17:29 UTC.
Position N 36°19' E 013°52'.

Length 170 m; draft 9.3 m.

Type: Ship (hazmat cat A). MMSI: 235052314.

Date/timePositionNaut miles runAvg speedWind from/ knotsBaromVisibWave heightAir tempDewpointWater temp
2016-Sep-20 17:33N 36°19' E 013°52'76316.6
2016-Sep-18 19:30N 36°11' W 001°55'8416.9
2016-Sep-18 14:34N 36°05' W 003°38'7717.4
2016-Sep-18 10:09N 35°60' W 005°13'1117.9
2016-Sep-18 09:33N 35°58' W 005°26'11716.7
2016-Sep-18 02:33N 36°12' W 007°49'1716.8
2016-Sep-18 01:33N 36°17' W 008°09'1717.0
2016-Sep-18 00:34N 36°22' W 008°29'3417.0
2016-Sep-17 22:33N 36°31' W 009°10'1616.5
2016-Sep-17 21:33N 36°41' W 009°26'1716.9
2016-Sep-17 20:34N 36°56' W 009°36'2217.4
2016-Sep-17 19:16N 37°18' W 009°43'10017.4
2016-Sep-17 13:33N 38°56' W 010°07'1717.0
2016-Sep-17 12:33N 39°13' W 010°07'5317.4
2016-Sep-17 09:31N 40°06' W 010°07'1617.3
2016-Sep-17 08:33N 40°22' W 010°07'47916.0
2016-Sep-16 02:33N 47°55' W 006°31'34 7.9
2016-Sep-15 22:12N 48°26' W 006°09'1217.9
2016-Sep-15 21:33N 48°37' W 006°01'1818.2
2016-Sep-15 20:33N 48°52' W 005°47'12115.1
2016-Sep-15 12:33N 49°53' W 003°06'1818.5
2016-Sep-15 11:33N 50°00' W 002°39'10615.1
2016-Sep-15 04:33N 49°30' W 000°02'9 8.7
2016-Sep-15 03:33N 49°27' E 000°10'0 0.0
2016-Sep-15 01:33N 49°27' E 000°10'0 0.0
2016-Sep-14 22:33N 49°27' E 000°10'0 0.0
2016-Sep-14 21:33N 49°27' E 000°10'14 3.6
2016-Sep-14 17:32N 49°34' W 000°10'0 0.1
2016-Sep-14 16:32N 49°34' W 000°10'2 0.5
2016-Sep-14 13:33N 49°34' W 000°12'8 8.2
2016-Sep-14 12:33N 49°38' W 000°23'17 8.4
2016-Sep-14 10:33N 49°55' W 000°24'1615.9
2016-Sep-14 09:33N 50°10' W 000°16'1211.5
2016-Sep-14 08:34N 50°20' W 000°10'8 8.1
2016-Sep-14 07:33N 50°28' W 000°05'8 7.9
2016-Sep-14 06:29N 50°31' E 000°08'76 9.5
2016-Sep-13 22:33N 51°14' E 001°46'16 7.9
2016-Sep-13 20:33N 51°24' E 002°05'19 9.5
2016-Sep-13 18:33N 51°22' E 002°35'1211.7
2016-Sep-13 17:33N 51°22' E 002°54'1515.3
2016-Sep-13 16:33N 51°25' E 003°18'36 7.0
2016-Sep-13 11:19N 51°17' E 004°16'0 0.0
2016-Sep-13 09:22N 51°17' E 004°16'0 0.0
2016-Sep-13 07:28N 51°17' E 004°16'0 0.0
2016-Sep-13 06:22N 51°17' E 004°16'0 0.0
2016-Sep-13 04:22N 51°17' E 004°16'0 0.0
2016-Sep-13 02:31N 51°17' E 004°16'8 2.6
2016-Sep-12 23:33N 51°22' E 004°06'19 9.7
2016-Sep-12 21:33N 51°26' E 003°36'2010.1
2016-Sep-12 19:33N 51°31' E 003°04'2713.2
2016-Sep-12 17:30N 51°56' E 003°20'26 8.8
2016-Sep-12 14:34N 51°59' E 004°02'0 0.1
2016-Sep-12 13:32N 51°59' E 004°02'0 0.0
2016-Sep-12 12:32N 51°59' E 004°02'0 0.0
2016-Sep-12 11:32N 51°59' E 004°02'0 0.0
2016-Sep-12 10:32N 51°59' E 004°02'0 0.0
2016-Sep-12 07:32N 51°59' E 004°02'0 0.0
2016-Sep-12 06:32N 51°59' E 004°02'0 0.0
2016-Sep-12 03:32N 51°59' E 004°02'6 3.0
2016-Sep-12 01:33N 52°00' E 003°52'2110.7
2016-Sep-11 23:34N 52°21' E 003°48'1111.4
2016-Sep-11 22:33N 52°33' E 003°52'1111.1
2016-Sep-11 21:33N 52°43' E 003°56'1111.5
2016-Sep-11 20:33N 52°55' E 003°59'1212.2
2016-Sep-11 19:33N 53°05' E 004°11'1514.5
2016-Sep-11 18:31N 53°15' E 004°29'2014.6
2016-Sep-11 17:08N 53°32' E 004°49'915.3
2016-Sep-11 16:33N 53°35' E 005°03'1514.9
2016-Sep-11 15:33N 53°40' E 005°26'1414.5
2016-Sep-11 14:33N 53°44' E 005°50'1414.4
2016-Sep-11 13:34N 53°49' E 006°13'1414.4
2016-Sep-11 12:33N 53°52' E 006°36'1515.1
2016-Sep-11 11:33N 53°55' E 007°02'1615.6
2016-Sep-11 10:33N 53°59' E 007°27'3015.0
2016-Sep-11 08:33N 53°60' E 008°18'1515.1
2016-Sep-11 07:33N 53°54' E 008°42'4310.8
2016-Sep-11 03:34N 53°34' E 009°46'5 5.2
2016-Sep-11 02:32N 53°32' E 009°55'0 0.0
2016-Sep-11 01:33N 53°32' E 009°55'0 0.0
2016-Sep-11 00:33N 53°32' E 009°55'0 0.0
2016-Sep-10 23:33N 53°32' E 009°55'0 0.0
2016-Sep-10 22:33N 53°32' E 009°55'0 0.0
2016-Sep-10 21:33N 53°32' E 009°55'0 0.0
2016-Sep-10 20:33N 53°32' E 009°55'0 0.0
2016-Sep-10 19:33N 53°32' E 009°55'0 0.0
2016-Sep-10 18:33N 53°32' E 009°55'  

Dump ship's entire track history